Time;durP1;ratioP1;P1;durP2;ratioP2;P2;SDS_P1;SDS_P2;PMS_P1;PMS_P2;Temp;Humidity;BMP_temperature;BMP_pressure;BME280_temperature;BME280_humidity;BME280_pressure;Samples;Min_cycle;Max_cycle;Signal;HPM_P1;HPM_P2
2021/06/06 00:01:37;;;;;;;10.43;6.93;;;;;;;19.06;44.49;101880.16;3575033;40;20052;-72
2021/06/06 00:04:08;;;;;;;13.40;8.25;;;;;;;19.03;44.00;101886.00;3573425;40;20107;-73
2021/06/06 00:06:37;;;;;;;11.63;7.00;;;;;;;19.05;44.04;101885.84;3584278;40;20041;-73
2021/06/06 00:09:09;;;;;;;12.32;7.63;;;;;;;19.04;44.72;101892.44;3572161;40;20408;-72
2021/06/06 00:11:41;;;;;;;12.55;8.05;;;;;;;19.02;44.53;101881.50;3574403;40;20056;-73
2021/06/06 00:14:11;;;;;;;14.23;7.82;;;;;;;19.03;44.54;101883.22;3576933;40;20060;-72
2021/06/06 00:16:44;;;;;;;10.95;7.22;;;;;;;19.03;43.88;101885.13;3576790;40;20126;-73
2021/06/06 00:19:12;;;;;;;10.57;6.83;;;;;;;19.00;44.13;101891.03;3576929;40;20115;-73
2021/06/06 00:21:42;;;;;;;10.77;7.18;;;;;;;19.02;44.06;101895.34;3578181;40;20053;-73
2021/06/06 00:24:15;;;;;;;13.60;8.18;;;;;;;19.05;44.35;101897.81;3578583;40;20075;-73
2021/06/06 00:26:43;;;;;;;12.98;7.30;;;;;;;19.01;44.49;101890.88;3578448;40;20056;-73
2021/06/06 00:29:10;;;;;;;8.93;6.35;;;;;;;19.03;43.99;101890.69;3578989;40;20052;-73
2021/06/06 00:31:39;;;;;;;8.77;6.18;;;;;;;19.02;43.75;101887.03;3575012;40;20056;-73
2021/06/06 00:34:08;;;;;;;9.75;6.28;;;;;;;19.05;44.09;101892.28;3573842;40;20088;-73
2021/06/06 00:36:35;;;;;;;10.60;7.25;;;;;;;19.02;44.21;101898.13;3578558;40;20049;-74
2021/06/06 00:39:05;;;;;;;8.82;5.63;;;;;;;19.02;44.18;101895.34;3577023;40;20138;-73
2021/06/06 00:41:39;;;;;;;10.23;6.85;;;;;;;19.02;44.21;101900.06;3578100;40;20060;-73
2021/06/06 00:44:08;;;;;;;9.48;6.03;;;;;;;18.97;44.08;101897.75;3579260;40;20121;-72
2021/06/06 00:46:39;;;;;;;9.23;6.40;;;;;;;18.97;43.48;101892.22;3581231;40;20052;-73
2021/06/06 00:49:08;;;;;;;8.75;6.10;;;;;;;18.95;43.49;101901.72;3579130;40;20061;-73
2021/06/06 00:51:42;;;;;;;7.32;5.63;;;;;;;18.94;43.32;101903.63;3577166;40;20088;-74
2021/06/06 00:54:14;;;;;;;7.55;5.25;;;;;;;18.93;43.31;101898.25;3580765;40;20049;-73
2021/06/06 00:56:48;;;;;;;7.65;5.45;;;;;;;18.89;43.53;101905.16;3582837;40;20089;-73
2021/06/06 00:59:22;;;;;;;6.82;5.05;;;;;;;18.88;43.33;101900.63;3577298;40;20424;-73
2021/06/06 01:01:51;;;;;;;8.18;5.43;;;;;;;18.84;43.51;101899.22;3576700;40;20041;-73
2021/06/06 01:04:21;;;;;;;8.88;5.50;;;;;;;18.86;43.21;101895.25;3576935;40;20898;-73
2021/06/06 01:06:51;;;;;;;7.82;5.63;;;;;;;18.84;43.19;101893.69;3573106;40;20045;-73
2021/06/06 01:09:23;;;;;;;7.53;5.07;;;;;;;18.84;43.90;101899.22;3579740;40;20142;-73
2021/06/06 01:12:00;;;;;;;7.90;5.30;;;;;;;18.83;43.76;101894.72;3572708;40;20048;-73
2021/06/06 01:14:41;;;;;;;7.22;4.72;;;;;;;18.79;43.83;101894.16;3578588;40;20084;-73
2021/06/06 01:17:18;;;;;;;6.72;4.93;;;;;;;18.79;43.31;101899.69;3578414;40;20040;-73
2021/06/06 01:19:54;;;;;;;7.03;4.70;;;;;;;18.78;43.57;101897.91;3576948;40;20099;-72
2021/06/06 01:22:45;;;;;;;7.85;5.30;;;;;;;18.76;43.94;101897.22;3581669;40;20052;-73
2021/06/06 01:25:23;;;;;;;8.73;5.55;;;;;;;18.73;43.48;101895.63;3578758;40;20088;-73
2021/06/06 01:28:03;;;;;;;6.93;3.83;;;;;;;18.71;43.49;101894.94;3578317;40;21729;-73
2021/06/06 01:30:34;;;;;;;8.35;5.43;;;;;;;18.70;43.49;101893.19;3579374;40;20057;-73
2021/06/06 01:33:07;;;;;;;7.40;5.10;;;;;;;18.70;43.73;101881.22;3578299;40;20056;-73
2021/06/06 01:35:46;;;;;;;6.88;5.10;;;;;;;18.69;43.37;101882.28;3580150;40;20345;-73
2021/06/06 01:38:17;;;;;;;7.97;5.10;;;;;;;18.66;43.66;101885.38;3578462;40;20052;-72
2021/06/06 01:40:52;;;;;;;9.07;4.97;;;;;;;18.67;43.69;101889.88;3577059;40;20064;-73
2021/06/06 01:43:24;;;;;;;7.65;5.03;;;;;;;18.64;44.00;101891.06;3578087;40;20052;-72
2021/06/06 01:46:01;;;;;;;8.00;4.63;;;;;;;18.65;43.97;101875.31;3577224;40;20122;-72
2021/06/06 01:48:30;;;;;;;6.90;4.80;;;;;;;18.61;43.40;101877.50;3581691;40;20052;-73
2021/06/06 01:51:03;;;;;;;6.10;4.40;;;;;;;18.62;44.04;101881.16;3568408;40;20049;-73
2021/06/06 01:53:32;;;;;;;6.63;4.75;;;;;;;18.58;43.70;101890.84;3575639;40;20398;-73
2021/06/06 01:56:05;;;;;;;6.88;4.82;;;;;;;18.61;43.53;101883.06;3580923;40;20067;-73
2021/06/06 01:58:46;;;;;;;7.72;5.20;;;;;;;18.58;44.03;101876.97;3580727;40;20529;-73
2021/06/06 02:01:18;;;;;;;8.40;5.10;;;;;;;18.59;44.15;101887.03;3578318;40;20042;-72
2021/06/06 02:03:50;;;;;;;7.13;4.90;;;;;;;18.59;44.12;101884.28;3578962;40;20059;-73
2021/06/06 02:06:28;;;;;;;7.50;4.72;;;;;;;18.58;43.63;101883.41;3577120;40;20321;-73
2021/06/06 02:08:58;;;;;;;6.83;4.83;;;;;;;18.56;44.05;101884.56;3577567;40;20049;-72
2021/06/06 02:11:35;;;;;;;5.80;4.38;;;;;;;18.59;43.72;101881.50;3575146;40;20053;-73
2021/06/06 02:14:08;;;;;;;6.55;4.68;;;;;;;18.59;44.17;101881.50;3577467;40;20048;-72
2021/06/06 02:16:43;;;;;;;7.70;5.45;;;;;;;18.57;44.17;101883.53;3568854;40;20061;-72
2021/06/06 02:19:18;;;;;;;7.85;5.68;;;;;;;18.54;44.08;101879.19;3581877;40;20154;-73
2021/06/06 02:22:03;;;;;;;9.50;5.68;;;;;;;18.55;43.76;101882.81;3579386;40;20134;-73
2021/06/06 02:24:37;;;;;;;8.82;5.75;;;;;;;18.53;43.57;101873.81;3578619;40;20399;-73
2021/06/06 02:27:16;;;;;;;6.97;5.20;;;;;;;18.52;43.59;101874.84;3577330;40;20071;-73
2021/06/06 02:29:55;;;;;;;7.82;5.30;;;;;;;18.54;44.15;101878.31;3583926;40;20324;-73
2021/06/06 02:32:34;;;;;;;7.70;4.63;;;;;;;18.53;44.25;101873.81;3577298;40;20134;-73
2021/06/06 02:35:10;;;;;;;8.82;5.93;;;;;;;18.50;43.87;101877.78;3575720;40;20041;-73
2021/06/06 02:37:53;;;;;;;7.68;5.10;;;;;;;18.50;44.34;101868.59;3581281;40;20052;-72
2021/06/06 02:40:29;;;;;;;6.85;5.15;;;;;;;18.50;43.95;101872.25;3576729;40;20084;-73
2021/06/06 02:43:01;;;;;;;9.57;6.00;;;;;;;18.49;44.04;101877.94;3581617;40;20079;-73
2021/06/06 02:45:32;;;;;;;8.77;5.40;;;;;;;18.45;43.97;101877.38;3576910;40;20051;-72
2021/06/06 02:48:05;;;;;;;8.65;6.10;;;;;;;18.48;44.23;101877.06;3580639;40;20040;-72
2021/06/06 02:50:35;;;;;;;;;;;;;;;18.19;44.62;101887.53;3583498;40;20081;-73
2021/06/06 02:53:12;;;;;;;8.52;5.40;;;;;;;18.42;43.95;101875.81;3577951;40;19940;-72
2021/06/06 02:55:45;;;;;;;8.52;5.88;;;;;;;18.44;44.14;101878.44;3574923;40;20053;-73
2021/06/06 02:58:20;;;;;;;8.77;5.90;;;;;;;18.44;44.19;101879.28;3579413;40;20283;-73
2021/06/06 03:00:57;;;;;;;8.93;5.57;;;;;;;18.43;44.38;101877.56;3576749;40;20053;-73
2021/06/06 03:03:30;;;;;;;7.97;4.88;;;;;;;18.42;43.80;101878.59;3576860;40;20049;-73
2021/06/06 03:06:11;;;;;;;8.50;6.10;;;;;;;18.42;44.29;101877.72;3575946;40;20130;-73
2021/06/06 03:08:41;;;;;;;8.10;5.45;;;;;;;18.38;44.31;101881.81;3577089;40;20045;-73
2021/06/06 03:11:13;;;;;;;9.07;6.20;;;;;;;18.40;44.27;101875.09;3581229;40;20100;-73
2021/06/06 03:13:51;;;;;;;8.40;5.43;;;;;;;18.40;43.91;101885.31;3577239;40;20040;-73
2021/06/06 03:16:21;;;;;;;7.28;4.93;;;;;;;18.38;43.79;101887.34;3577370;40;20057;-73
2021/06/06 03:18:56;;;;;;;8.13;5.32;;;;;;;18.37;44.35;101883.72;3577889;40;20052;-73
2021/06/06 03:21:34;;;;;;;7.75;5.75;;;;;;;18.37;43.88;101883.72;3576919;40;20053;-73
2021/06/06 03:24:07;;;;;;;9.02;6.32;;;;;;;18.37;43.76;101883.72;3580628;40;20171;-73
2021/06/06 03:26:43;;;;;;;9.25;6.07;;;;;;;18.33;43.70;101881.44;3576170;40;20060;-73
2021/06/06 03:29:17;;;;;;;8.10;5.47;;;;;;;18.35;44.28;101879.38;3577911;40;20055;-73
2021/06/06 03:31:51;;;;;;;7.97;5.13;;;;;;;18.33;43.69;101875.88;3579640;40;20052;-73
2021/06/06 03:34:19;;;;;;;;;;;;;;;18.03;44.90;101879.88;3571803;40;20410;-73
2021/06/06 03:36:54;;;;;;;7.80;4.75;;;;;;;18.25;43.89;101885.00;3575434;40;19932;-73
2021/06/06 03:39:41;;;;;;;7.97;5.57;;;;;;;18.24;44.41;101877.72;3577287;40;20134;-73
2021/06/06 03:42:15;;;;;;;8.15;5.90;;;;;;;18.26;43.90;101878.44;3577245;40;20048;-73
2021/06/06 03:44:49;;;;;;;7.65;5.95;;;;;;;18.28;44.45;101878.25;3576683;40;20041;-73
2021/06/06 03:47:22;;;;;;;7.47;5.82;;;;;;;18.24;44.09;101874.94;3576134;40;20044;-73
2021/06/06 03:49:52;;;;;;;9.43;6.43;;;;;;;18.25;44.40;101876.69;3568726;40;20048;-73
2021/06/06 03:52:20;;;;;;;9.05;6.72;;;;;;;18.24;43.88;101880.47;3580019;40;20052;-73
2021/06/06 03:54:48;;;;;;;8.43;6.20;;;;;;;18.24;44.34;101879.59;3577134;40;20056;-73
2021/06/06 03:57:20;;;;;;;9.32;6.63;;;;;;;18.26;44.20;101878.44;3578510;40;20063;-73
2021/06/06 03:59:51;;;;;;;9.50;6.35;;;;;;;18.24;44.44;101872.16;3577677;40;20087;-73
2021/06/06 04:02:19;;;;;;;8.57;6.28;;;;;;;18.22;43.99;101884.44;3576493;40;20052;-73
2021/06/06 04:04:47;;;;;;;9.05;6.53;;;;;;;18.21;43.92;101874.38;3574381;40;20331;-73
2021/06/06 04:07:16;;;;;;;9.77;6.88;;;;;;;18.20;44.15;101886.47;3576377;40;20063;-73
2021/06/06 04:09:44;;;;;;;9.40;6.32;;;;;;;18.18;44.11;101880.25;3580121;40;20072;-75
2021/06/06 04:12:13;;;;;;;11.02;7.40;;;;;;;18.18;44.52;101877.47;3582072;40;20277;-75
2021/06/06 04:14:43;;;;;;;9.65;6.43;;;;;;;18.15;44.22;101875.88;3581432;40;20126;-75
2021/06/06 04:17:13;;;;;;;10.70;6.97;;;;;;;18.17;44.38;101871.06;3579065;40;20052;-74
2021/06/06 04:19:43;;;;;;;9.05;6.65;;;;;;;18.13;44.57;101874.28;3579233;40;20048;-75
2021/06/06 04:22:33;;;;;;;10.32;7.15;;;;;;;18.12;44.28;101873.41;3578777;40;20130;-75
2021/06/06 04:25:24;;;;;;;9.77;6.32;;;;;;;18.10;44.31;101877.41;3578016;40;20071;-74
2021/06/06 04:28:14;;;;;;;10.15;7.15;;;;;;;18.08;44.74;101877.53;3578939;40;20053;-75
2021/06/06 04:30:56;;;;;;;11.23;7.57;;;;;;;18.05;44.30;101872.31;3562441;40;20074;-74
2021/06/06 04:33:31;;;;;;;9.65;6.88;;;;;;;18.08;44.54;101874.78;3581177;40;20059;-75
2021/06/06 04:36:19;;;;;;;10.93;6.93;;;;;;;18.04;44.58;101873.34;3577562;40;20165;-74
2021/06/06 04:39:08;;;;;;;10.63;7.70;;;;;;;18.03;44.81;101879.88;3580784;40;20067;-74
2021/06/06 04:42:04;;;;;;;11.18;7.05;;;;;;;18.02;44.49;101873.47;3579469;40;20146;-75
2021/06/06 04:44:52;;;;;;;10.55;7.47;;;;;;;17.99;44.58;101875.69;3580910;40;20038;-75
2021/06/06 04:47:42;;;;;;;10.50;7.72;;;;;;;17.97;44.97;101880.50;3575006;40;20406;-75
2021/06/06 04:50:34;;;;;;;11.98;7.68;;;;;;;17.97;44.40;101878.59;3577221;40;20052;-75
2021/06/06 04:53:24;;;;;;;10.15;7.43;;;;;;;17.94;44.48;101883.59;3572627;40;20061;-75
2021/06/06 04:56:15;;;;;;;12.00;7.40;;;;;;;17.94;45.05;101887.22;3574038;40;20041;-75
2021/06/06 04:59:04;;;;;;;12.95;7.93;;;;;;;17.92;44.98;101882.88;3583866;40;20055;-75
2021/06/06 05:01:53;;;;;;;12.05;8.60;;;;;;;17.91;44.95;101886.66;3583200;40;20398;-75
2021/06/06 05:04:41;;;;;;;12.15;8.80;;;;;;;17.89;44.88;101885.94;3579381;40;20041;-76
2021/06/06 05:07:31;;;;;;;12.20;8.05;;;;;;;17.88;44.46;101887.84;3578091;40;20064;-75
2021/06/06 05:10:19;;;;;;;14.00;8.57;;;;;;;17.86;44.50;101889.03;3575557;40;20053;-75
2021/06/06 05:13:08;;;;;;;12.45;8.30;;;;;;;17.85;44.53;101887.28;3580683;40;20110;-75
2021/06/06 05:15:58;;;;;;;12.02;8.23;;;;;;;17.84;44.96;101885.53;3578312;40;20055;-75
2021/06/06 05:18:50;;;;;;;11.48;7.95;;;;;;;17.82;44.67;101882.06;3583937;40;20106;-75
2021/06/06 05:21:38;;;;;;;11.48;7.20;;;;;;;17.81;44.70;101886.72;3578086;40;20129;-75
2021/06/06 05:24:28;;;;;;;12.60;8.55;;;;;;;17.82;45.22;101887.59;3578473;40;20388;-75
2021/06/06 05:27:17;;;;;;;12.57;8.52;;;;;;;17.80;45.14;101895.16;3580843;40;20066;-75
2021/06/06 05:30:09;;;;;;;9.90;6.95;;;;;;;17.80;45.13;101897.94;3578102;40;20133;-75
2021/06/06 05:32:57;;;;;;;12.20;8.23;;;;;;;17.76;44.60;101896.53;3580952;40;20061;-75
2021/06/06 05:35:46;;;;;;;14.23;8.43;;;;;;;17.73;44.54;101905.13;3579615;40;20081;-75
2021/06/06 05:38:34;;;;;;;11.90;7.55;;;;;;;17.72;44.83;101901.47;3579155;40;20069;-76
2021/06/06 05:41:23;;;;;;;12.00;7.40;;;;;;;17.70;44.70;101907.16;3573356;40;20275;-75
2021/06/06 05:44:11;;;;;;;11.77;7.88;;;;;;;17.68;45.24;101911.13;3580038;40;20037;-76
2021/06/06 05:46:59;;;;;;;11.65;7.93;;;;;;;17.66;44.85;101905.75;3579473;40;20053;-76
2021/06/06 05:49:46;;;;;;;13.25;9.00;;;;;;;17.67;44.87;101912.16;3581748;40;20060;-76
2021/06/06 05:52:41;;;;;;;11.93;7.82;;;;;;;17.66;45.15;101910.41;3573346;40;20060;-76
2021/06/06 05:55:28;;;;;;;12.23;8.43;;;;;;;17.66;45.38;101914.03;3578376;40;20048;-77
2021/06/06 05:58:18;;;;;;;14.38;9.10;;;;;;;17.68;44.84;101911.13;3579918;40;20049;-76
2021/06/06 06:01:07;;;;;;;13.23;8.63;;;;;;;17.66;44.88;101904.88;3576871;40;20065;-75
2021/06/06 06:03:55;;;;;;;13.88;9.10;;;;;;;17.62;45.29;101915.34;3578083;40;20053;-75
2021/06/06 06:06:43;;;;;;;13.55;9.40;;;;;;;17.62;45.32;101909.81;3579491;40;20053;-75
2021/06/06 06:09:30;;;;;;;15.73;9.88;;;;;;;17.62;45.62;101911.72;3576736;40;20044;-75
2021/06/06 06:12:18;;;;;;;11.85;8.23;;;;;;;17.61;45.46;101913.66;3576788;40;20049;-75
2021/06/06 06:14:47;;;;;;;12.82;8.63;;;;;;;17.64;45.36;101917.97;3575668;40;20146;-76
2021/06/06 06:17:19;;;;;;;12.77;8.43;;;;;;;17.61;45.15;101919.19;3580128;40;20094;-76
2021/06/06 06:19:47;;;;;;;14.10;8.77;;;;;;;17.63;45.22;101919.88;3580800;40;20389;-76
2021/06/06 06:22:15;;;;;;;14.32;10.00;;;;;;;17.61;45.61;101910.88;3573929;40;20045;-75
2021/06/06 06:24:45;;;;;;;14.73;9.90;;;;;;;17.61;45.68;101918.31;3573830;40;20057;-75
2021/06/06 06:27:12;;;;;;;14.90;10.15;;;;;;;17.61;45.12;101916.41;3577186;40;20377;-75
2021/06/06 06:30:12;;;;;;;15.07;10.18;;;;;;;17.62;45.29;101918.13;3585663;40;20053;-75
2021/06/06 06:32:41;;;;;;;17.35;11.02;;;;;;;17.62;45.59;101925.56;3577113;40;20045;-75
2021/06/06 06:35:10;;;;;;;17.15;10.75;;;;;;;17.63;45.20;101916.22;3588562;40;20052;-75
2021/06/06 06:37:38;;;;;;;18.70;11.20;;;;;;;17.61;45.04;101916.41;3580024;40;20036;-75
2021/06/06 06:40:08;;;;;;;19.08;11.73;;;;;;;17.62;45.60;101923.66;3576346;40;20060;-76
2021/06/06 06:42:37;;;;;;;17.27;11.02;;;;;;;17.60;45.35;101922.09;3580029;40;20067;-76
2021/06/06 06:45:06;;;;;;;17.33;11.18;;;;;;;17.60;45.38;101920.19;3582328;40;20041;-76
2021/06/06 06:47:35;;;;;;;16.52;10.63;;;;;;;17.63;45.22;101921.75;3577293;40;20159;-76
2021/06/06 06:50:04;;;;;;;17.52;10.40;;;;;;;17.60;45.59;101917.44;3577614;40;20057;-75
2021/06/06 06:52:36;;;;;;;13.73;9.43;;;;;;;17.59;44.97;101909.28;3578297;40;20081;-75
2021/06/06 06:55:06;;;;;;;16.10;9.98;;;;;;;17.58;45.50;101919.47;3577430;40;20449;-76
2021/06/06 06:57:36;;;;;;;16.25;11.15;;;;;;;17.58;45.22;101919.47;3577236;40;20052;-76
2021/06/06 07:00:06;;;;;;;16.83;10.85;;;;;;;17.61;45.18;101916.41;3577971;40;20044;-77
2021/06/06 07:02:51;;;;;;;15.98;11.00;;;;;;;17.61;45.45;101921.06;3576543;40;20029;-76
2021/06/06 07:05:19;;;;;;;15.52;10.85;;;;;;;17.58;45.61;101919.47;3577681;40;20025;-76
2021/06/06 07:07:48;;;;;;;15.10;10.43;;;;;;;17.60;45.10;101925.72;3581429;40;20056;-76
2021/06/06 07:10:22;;;;;;;16.60;10.90;;;;;;;17.61;45.47;101930.25;3573462;40;20339;-76
2021/06/06 07:12:50;;;;;;;16.45;10.90;;;;;;;17.60;45.51;101927.63;3578850;40;20077;-76
2021/06/06 07:15:19;;;;;;;15.07;10.35;;;;;;;17.61;45.14;101927.47;3579793;40;20060;-76
2021/06/06 07:17:48;;;;;;;14.25;9.32;;;;;;;17.62;45.17;101928.31;3584458;40;20051;-76
2021/06/06 07:20:29;;;;;;;14.70;9.73;;;;;;;17.64;45.53;101934.59;3577685;40;20065;-77
2021/06/06 07:22:58;;;;;;;15.60;10.60;;;;;;;17.61;45.80;101933.00;3577349;40;20061;-75
2021/06/06 07:25:26;;;;;;;15.63;9.43;;;;;;;17.61;45.47;101938.53;3576289;40;20062;-76
2021/06/06 07:27:54;;;;;;;15.93;10.02;;;;;;;17.62;45.54;101926.44;3585277;40;20056;-76
2021/06/06 07:30:27;;;;;;;19.00;11.38;;;;;;;17.64;45.27;101931.81;3577169;40;20053;-75
2021/06/06 07:32:56;;;;;;;16.35;9.80;;;;;;;17.62;45.34;101934.72;3577410;40;20413;-76
2021/06/06 07:35:30;;;;;;;18.38;10.55;;;;;;;17.67;45.90;101934.28;3585808;40;20049;-76
2021/06/06 07:37:58;;;;;;;15.38;10.02;;;;;;;17.65;45.72;101937.19;3577033;40;20081;-76
2021/06/06 07:40:31;;;;;;;15.82;9.65;;;;;;;17.68;45.07;101938.81;3577233;40;20056;-75
2021/06/06 07:42:58;;;;;;;15.75;9.98;;;;;;;17.66;45.21;101935.31;3579125;40;20056;-76
2021/06/06 07:45:28;;;;;;;14.20;9.27;;;;;;;17.66;45.31;101936.19;3578896;40;20048;-74
2021/06/06 07:47:56;;;;;;;15.35;9.63;;;;;;;17.68;45.59;101938.81;3577411;40;20313;-76
2021/06/06 07:50:29;;;;;;;15.70;9.52;;;;;;;17.70;45.16;101936.75;3576661;40;20065;-79
2021/06/06 07:52:58;;;;;;;16.23;10.25;;;;;;;17.67;45.77;101937.94;3579685;40;20053;-76
2021/06/06 07:55:27;;;;;;;16.02;9.95;;;;;;;17.70;45.76;101940.38;3579754;40;20411;-76
2021/06/06 07:57:56;;;;;;;15.48;10.18;;;;;;;17.71;45.78;101944.00;3579398;40;20066;-75
2021/06/06 08:00:27;;;;;;;15.95;10.25;;;;;;;17.73;45.13;101943.88;3588641;40;20033;-76
2021/06/06 08:02:56;;;;;;;16.23;9.18;;;;;;;17.71;45.26;101941.25;3582634;40;20059;-76
2021/06/06 08:05:25;;;;;;;13.48;9.30;;;;;;;17.70;45.43;101943.13;3579632;40;20118;-76
2021/06/06 08:07:54;;;;;;;18.35;10.18;;;;;;;17.73;45.18;101944.75;3570699;40;20029;-76
2021/06/06 08:10:26;;;;;;;17.38;10.60;;;;;;;17.74;45.41;101948.38;3583044;40;20052;-76
2021/06/06 08:12:55;;;;;;;17.15;10.40;;;;;;;17.70;45.19;101942.28;3580111;40;20040;-76
2021/06/06 08:15:27;;;;;;;15.55;9.32;;;;;;;17.68;45.73;101952.63;3576629;40;20410;-76
2021/06/06 08:17:55;;;;;;;18.45;9.90;;;;;;;17.67;45.31;101950.88;3578075;40;20053;-76
2021/06/06 08:20:28;;;;;;;18.15;11.00;;;;;;;17.67;45.09;101942.59;3578233;40;20406;-77
2021/06/06 08:22:58;;;;;;;18.05;10.73;;;;;;;17.64;45.29;101942.88;3579719;40;20052;-76
2021/06/06 08:25:26;;;;;;;16.65;10.52;;;;;;;17.61;45.58;101941.31;3579871;40;20033;-79
2021/06/06 08:27:54;;;;;;;17.70;10.93;;;;;;;17.61;45.53;101948.75;3579268;40;20080;-75
2021/06/06 08:30:28;;;;;;;16.30;10.05;;;;;;;17.63;45.19;101939.25;3579537;40;20110;-76
2021/06/06 08:32:56;;;;;;;16.48;10.07;;;;;;;17.60;45.73;101941.47;3576666;40;20025;-77
2021/06/06 08:35:34;;;;;;;15.23;9.48;;;;;;;17.61;45.90;101949.63;3578517;40;20038;-78
2021/06/06 08:38:03;;;;;;;13.95;9.35;;;;;;;17.62;45.82;101951.31;3579702;40;20029;-77
2021/06/06 08:40:36;;;;;;;15.95;10.38;;;;;;;17.62;45.68;101940.25;3578693;40;20079;-76
2021/06/06 08:43:08;;;;;;;14.93;9.80;;;;;;;17.60;45.35;101945.09;3578253;40;20049;-76
2021/06/06 08:45:45;;;;;;;14.98;9.55;;;;;;;17.59;45.80;101946.13;3579086;40;20393;-75
2021/06/06 08:48:17;;;;;;;13.80;9.38;;;;;;;17.62;45.57;101948.56;3575946;40;20071;-74
2021/06/06 08:50:48;;;;;;;15.98;9.18;;;;;;;17.63;45.44;101960.50;3579248;40;20125;-73
2021/06/06 08:53:22;;;;;;;18.65;11.68;;;;;;;17.65;45.46;101953.81;3578417;40;20416;-77
2021/06/06 08:56:04;;;;;;;18.33;11.90;;;;;;;17.66;45.72;101952.78;3577477;40;20394;-76
2021/06/06 08:58:41;;;;;;;19.83;12.18;;;;;;;17.66;46.07;101960.22;3579602;40;20302;-77
2021/06/06 09:01:16;;;;;;;17.75;11.63;;;;;;;17.67;45.59;101964.72;3581003;40;20044;-76
2021/06/06 09:03:44;;;;;;;23.48;12.15;;;;;;;17.65;45.91;101967.63;3582951;40;20130;-76
2021/06/06 09:06:17;;;;;;;18.60;11.45;;;;;;;17.69;45.54;101965.44;3572719;40;20037;-76
2021/06/06 09:09:12;;;;;;;18.88;11.18;;;;;;;17.63;46.04;101958.59;3580067;40;20328;-77
2021/06/06 09:11:41;;;;;;;18.27;10.70;;;;;;;17.65;45.81;101964.00;3583776;40;20396;-76
2021/06/06 09:14:09;;;;;;;16.60;10.60;;;;;;;17.65;45.58;101959.34;3569273;40;20049;-76
2021/06/06 09:16:52;;;;;;;20.33;11.00;;;;;;;17.69;45.73;101966.31;3576975;40;20053;-77
2021/06/06 09:19:20;;;;;;;17.10;10.93;;;;;;;17.66;46.20;101961.09;3579759;40;20052;-77
2021/06/06 09:21:53;;;;;;;16.92;10.50;;;;;;;17.72;45.33;101964.25;3578596;40;20044;-76
2021/06/06 09:24:33;;;;;;;15.05;9.50;;;;;;;17.72;45.97;101970.66;3576710;40;20056;-76
2021/06/06 09:27:10;;;;;;;16.85;9.68;;;;;;;17.72;45.29;101969.78;3580773;40;20059;-76
2021/06/06 09:29:38;;;;;;;16.65;10.68;;;;;;;17.68;45.84;101972.00;3579888;40;20403;-75
2021/06/06 09:32:10;;;;;;;17.50;10.52;;;;;;;17.70;45.60;101981.88;3576914;40;20049;-77
2021/06/06 09:34:50;;;;;;;16.85;9.93;;;;;;;17.65;45.96;101973.19;3581758;40;20103;-75
2021/06/06 09:37:21;;;;;;;15.98;10.32;;;;;;;17.70;45.48;101972.72;3579076;40;20044;-78
2021/06/06 09:40:00;;;;;;;17.00;10.90;;;;;;;17.71;45.74;101974.44;3581554;40;20056;-77
2021/06/06 09:42:35;;;;;;;15.93;10.55;;;;;;;17.70;45.86;101975.50;3580883;40;20091;-77
2021/06/06 09:45:20;;;;;;;16.63;10.65;;;;;;;17.70;45.38;101964.44;3570361;40;20036;-78
2021/06/06 09:48:02;;;;;;;18.63;10.85;;;;;;;17.68;45.98;101967.34;3573336;40;20578;-78
2021/06/06 09:50:40;;;;;;;14.52;9.50;;;;;;;17.67;45.79;101968.38;3577969;40;20041;-77
2021/06/06 09:53:14;;;;;;;15.93;10.35;;;;;;;17.70;45.49;101973.56;3574857;40;20036;-77
2021/06/06 09:55:46;;;;;;;15.05;10.02;;;;;;;17.70;45.95;101978.28;3578697;40;20287;-77
2021/06/06 09:58:19;;;;;;;17.63;11.52;;;;;;;17.69;45.45;101976.53;3579965;40;20285;-77
2021/06/06 10:00:50;;;;;;;14.05;9.40;;;;;;;17.70;46.00;101981.03;3579223;40;20103;-77
2021/06/06 10:03:23;;;;;;;18.05;10.60;;;;;;;17.70;46.10;101987.41;3579591;40;20033;-77
2021/06/06 10:06:12;;;;;;;14.55;10.27;;;;;;;17.69;46.11;101985.69;3579155;40;20078;-79
2021/06/06 10:08:41;;;;;;;15.25;9.43;;;;;;;17.68;45.54;101983.06;3578891;40;20059;-77
2021/06/06 10:11:14;;;;;;;18.17;11.65;;;;;;;17.72;46.20;101987.28;3578598;40;20048;-77
2021/06/06 10:13:46;;;;;;;18.40;11.23;;;;;;;17.70;45.70;101983.81;3585489;40;20088;-78
2021/06/06 10:16:19;;;;;;;17.50;10.95;;;;;;;17.70;45.95;101984.66;3576575;40;20080;-77
2021/06/06 10:18:52;;;;;;;19.10;12.07;;;;;;;17.74;45.67;101988.00;3577779;40;20052;-76
2021/06/06 10:21:26;;;;;;;18.52;11.68;;;;;;;17.74;45.79;101990.75;3577618;40;20092;-77
2021/06/06 10:23:57;;;;;;;22.77;13.82;;;;;;;17.74;45.74;101992.66;3583252;40;20037;-77
2021/06/06 10:26:36;;;;;;;19.40;11.85;;;;;;;17.76;46.09;101993.38;3578076;40;20055;-77
2021/06/06 10:29:08;;;;;;;18.20;11.30;;;;;;;17.75;45.57;101986.97;3579452;40;20052;-77
2021/06/06 10:31:40;;;;;;;20.80;12.52;;;;;;;17.74;46.35;101995.44;3579839;40;20049;-77
2021/06/06 10:34:17;;;;;;;24.45;13.77;;;;;;;17.78;45.82;102000.53;3585610;40;20048;-77
2021/06/06 10:36:44;;;;;;;19.00;12.18;;;;;;;17.76;45.95;101998.91;3575295;40;20127;-77
2021/06/06 10:39:17;;;;;;;13.98;8.40;;;;;;;17.80;46.19;102001.22;3578985;40;20033;-73
2021/06/06 10:41:56;;;;;;;15.23;9.38;;;;;;;17.83;45.83;101995.38;3577063;40;20097;-73
2021/06/06 10:44:28;;;;;;;16.38;10.48;;;;;;;17.84;46.18;101999.91;3580974;40;20145;-73
2021/06/06 10:47:01;;;;;;;17.10;11.10;;;;;;;17.88;46.19;102004.09;3577288;40;20052;-73
2021/06/06 10:49:35;;;;;;;17.65;11.10;;;;;;;17.95;46.86;101999.69;3576050;40;20064;-73
2021/06/06 10:52:08;;;;;;;19.13;11.82;;;;;;;18.03;46.14;102002.56;3573396;40;20138;-73
2021/06/06 10:54:39;;;;;;;16.55;10.93;;;;;;;18.10;46.48;101988.16;3578761;40;20146;-73
2021/06/06 10:57:11;;;;;;;20.58;13.00;;;;;;;18.18;45.92;101997.44;3576443;40;20041;-73
2021/06/06 10:59:44;;;;;;;20.35;12.63;;;;;;;18.23;46.03;101981.22;3578049;40;20283;-73
2021/06/06 11:02:28;;;;;;;18.63;10.88;;;;;;;18.30;45.59;101981.44;3573074;40;20064;-75
2021/06/06 11:04:58;;;;;;;19.10;11.43;;;;;;;18.33;45.90;101989.47;3574792;40;20056;-76
2021/06/06 11:07:37;;;;;;;14.35;9.57;;;;;;;18.38;45.40;101984.31;3576825;40;20053;-75
2021/06/06 11:10:27;;;;;;;14.30;9.63;;;;;;;18.38;45.28;101978.78;3581878;40;20049;-76
2021/06/06 11:12:57;;;;;;;14.25;9.10;;;;;;;18.41;45.10;101986.78;3582688;40;20052;-75
2021/06/06 11:15:37;;;;;;;15.68;9.32;;;;;;;18.42;44.98;101974.69;3584387;40;20056;-76
2021/06/06 11:18:11;;;;;;;16.90;10.15;;;;;;;18.43;44.93;101976.44;3588480;40;20052;-75
2021/06/06 11:20:51;;;;;;;14.70;8.93;;;;;;;18.43;44.96;101971.75;3582497;40;20040;-75
2021/06/06 11:23:32;;;;;;;14.05;9.20;;;;;;;18.43;44.86;101973.66;3587184;40;20071;-75
2021/06/06 11:26:00;;;;;;;13.25;8.68;;;;;;;18.40;45.02;101977.59;3579242;40;20064;-76
2021/06/06 11:28:36;;;;;;;14.00;9.27;;;;;;;18.43;44.69;101970.88;3577725;40;20058;-75
2021/06/06 11:31:19;;;;;;;11.00;7.25;;;;;;;18.41;45.49;101967.38;3580116;40;20045;-76
2021/06/06 11:33:57;;;;;;;12.75;8.15;;;;;;;18.42;45.16;101972.78;3587418;40;20055;-75
2021/06/06 11:36:32;;;;;;;14.65;8.45;;;;;;;18.42;44.85;101963.59;3579003;40;23250;-75
2021/06/06 11:39:13;;;;;;;13.20;8.00;;;;;;;18.41;44.99;101967.38;3578278;40;20056;-75
2021/06/06 11:41:43;;;;;;;13.75;8.85;;;;;;;18.38;44.96;101965.78;3583484;40;20082;-75
2021/06/06 11:44:21;;;;;;;12.68;8.73;;;;;;;18.41;45.10;101970.16;3586110;40;20270;-75
2021/06/06 11:46:53;;;;;;;13.60;9.15;;;;;;;18.38;44.75;101968.56;3568530;40;20054;-75
2021/06/06 11:49:29;;;;;;;14.05;8.70;;;;;;;18.37;45.12;101966.81;3568576;40;20403;-75
2021/06/06 11:52:06;;;;;;;13.05;8.65;;;;;;;18.39;44.76;101966.66;3584642;40;20064;-74
2021/06/06 11:54:37;;;;;;;12.93;8.20;;;;;;;18.37;45.18;101961.28;3587751;40;20317;-75